Marticville, Pennsylvania
Current Conditions -  °F | °C
As of 9:53 AM on Saturday 25 Oct 2014 (Local Time) from KLNS Reporting Station
Clear Clear  
Wind Chill: 55°   Ceiling: Unl
Heat Index: 55°   Visibility: 10mi
Dew Point: 43°   Wind: 7mph
Humidity: 64%   Direction: 280°W
Pressure: 29.92"   Gusts: NA
Location:  39.9024°N, 76.3233°W
Report Text: KLNS 251353Z 28006KT 10SM CLR 13/06 A2992 RMK AO2 SLP132 T01280061
Loading
Personal Weather Stations






























Interactive Weather Map
Tropical Storm Tracking
New forecast layout! Learn more

10-Day Weather Forecast

Advertisements
Track Severe Weather on mobile